Time;durP1;ratioP1;P1;durP2;ratioP2;P2;SDS_P1;SDS_P2;PMS_P1;PMS_P2;Temp;Humidity;BMP_temperature;BMP_pressure;BME280_temperature;BME280_humidity;BME280_pressure;Samples;Min_cycle;Max_cycle;Signal;HPM_P1;HPM_P2
2021/12/15 00:01:18;;;;;;;88.07;44.00;;;;;;;9.74;100.00;102614.81;4823087;29;20581;-75
2021/12/15 00:03:44;;;;;;;80.55;41.05;;;;;;;9.79;100.00;102617.88;4834687;29;20524;-75
2021/12/15 00:06:13;;;;;;;85.25;41.65;;;;;;;9.75;100.00;102613.81;4834114;29;20061;-75
2021/12/15 00:08:44;;;;;;;90.00;42.92;;;;;;;9.83;100.00;102614.81;4808618;29;20138;-75
2021/12/15 00:11:10;;;;;;;77.47;41.15;;;;;;;9.77;100.00;102609.09;4800667;29;20130;-75
2021/12/15 00:13:37;;;;;;;85.43;41.03;;;;;;;9.79;100.00;102612.50;4810325;29;20066;-74
2021/12/15 00:16:04;;;;;;;80.25;41.08;;;;;;;9.79;100.00;102612.50;4803859;29;20057;-74
2021/12/15 00:18:30;;;;;;;85.35;41.20;;;;;;;9.76;100.00;102607.44;4811185;29;20673;-74
2021/12/15 00:20:55;;;;;;;77.07;42.53;;;;;;;9.77;100.00;102619.03;4817172;28;20074;-74
2021/12/15 00:23:21;;;;;;;88.35;41.65;;;;;;;9.83;100.00;102617.53;4814545;29;20033;-74
2021/12/15 00:25:46;;;;;;;86.32;41.28;;;;;;;9.77;100.00;102609.09;4822982;29;20035;-75
2021/12/15 00:28:12;;;;;;;85.40;41.92;;;;;;;9.85;100.00;102612.81;4819466;29;20065;-74
2021/12/15 00:30:38;;;;;;;77.32;39.25;;;;;;;9.80;100.00;102616.84;4832423;28;20892;-74
2021/12/15 00:33:06;;;;;;;85.07;39.22;;;;;;;9.79;100.00;102612.50;4800593;29;20130;-74
2021/12/15 00:35:32;;;;;;;83.88;39.55;;;;;;;9.82;100.00;102605.06;4813463;29;20035;-74
2021/12/15 00:37:57;;;;;;;79.57;39.35;;;;;;;9.78;100.00;102616.16;4812443;29;22968;-75
2021/12/15 00:40:25;;;;;;;70.18;39.13;;;;;;;9.77;100.00;102608.28;4796324;29;20290;-72
2021/12/15 00:42:50;;;;;;;82.68;39.78;;;;;;;9.75;100.00;102615.66;4817196;29;20038;-72
2021/12/15 00:45:18;;;;;;;74.03;38.60;;;;;;;9.79;100.00;102606.25;4808609;29;20055;-74
2021/12/15 00:47:44;;;;;;;83.13;42.17;;;;;;;9.78;100.00;102608.09;4807689;29;20066;-73
2021/12/15 00:50:12;;;;;;;79.82;41.97;;;;;;;9.83;100.00;102612.13;4832470;29;20040;-73
2021/12/15 00:52:39;;;;;;;85.55;40.03;;;;;;;9.74;100.00;102609.44;4821240;28;20055;-73
2021/12/15 00:55:08;;;;;;;81.63;40.58;;;;;;;9.78;100.00;102605.41;4835010;28;20066;-73
2021/12/15 00:57:33;;;;;;;72.82;38.72;;;;;;;9.80;100.00;102608.78;4800793;29;20023;-74
2021/12/15 00:59:59;;;;;;;73.20;41.10;;;;;;;9.78;100.00;102604.56;4820453;29;24167;-73
2021/12/15 01:02:25;;;;;;;86.03;41.40;;;;;;;9.82;100.00;102608.59;4818654;29;20043;-74
2021/12/15 01:04:50;;;;;;;80.45;39.42;;;;;;;9.87;100.00;102616.22;4828460;29;26638;-73
2021/12/15 01:07:17;;;;;;;75.65;38.50;;;;;;;9.86;100.00;102619.88;4822929;29;20051;-73
2021/12/15 01:09:48;;;;;;;69.55;37.85;;;;;;;9.87;100.00;102616.22;4829285;29;20074;-73
2021/12/15 01:20:26;;;;;;;71.63;39.00;;;;;;;9.85;100.00;102615.53;4813326;29;20150;-73
2021/12/15 01:22:53;;;;;;;72.65;35.53;;;;;;;9.84;100.00;102621.91;4817147;29;20121;-72
2021/12/15 01:25:29;;;;;;;74.50;37.88;;;;;;;9.85;100.00;102626.28;4802218;29;20044;-72
2021/12/15 01:27:55;;;;;;;74.60;38.95;;;;;;;9.88;100.00;102621.41;4836506;28;20038;-72
2021/12/15 01:30:27;;;;;;;66.78;38.42;;;;;;;9.85;100.00;102624.44;4830422;29;22792;-73
2021/12/15 01:32:53;;;;;;;79.40;40.20;;;;;;;9.86;100.00;102620.72;4822487;29;20051;-73
2021/12/15 01:35:20;;;;;;;76.05;39.05;;;;;;;9.84;100.00;102619.22;4803447;29;20034;-73
2021/12/15 01:37:46;;;;;;;74.30;38.85;;;;;;;9.84;100.00;102616.53;4805485;29;20055;-73
2021/12/15 01:40:20;;;;;;;78.22;38.50;;;;;;;9.78;100.00;102616.16;4836291;29;20150;-73
2021/12/15 01:42:46;;;;;;;73.15;38.78;;;;;;;9.82;100.00;102619.38;4813195;29;20560;-73
2021/12/15 01:48:05;;;;;;;66.63;38.70;;;;;;;9.80;100.00;102638.38;4817846;29;20081;-73
2021/12/15 01:50:31;;;;;;;71.53;39.00;;;;;;;9.80;100.00;102630.31;4823282;28;20044;-72
2021/12/15 01:52:56;;;;;;;72.38;38.28;;;;;;;9.80;100.00;102630.31;4807133;29;20149;-72
2021/12/15 01:55:22;;;;;;;70.22;39.63;;;;;;;9.84;100.00;102638.06;4827967;29;20128;-72
2021/12/15 01:57:48;;;;;;;74.80;40.15;;;;;;;9.87;100.00;102635.06;4798295;29;20051;-72
2021/12/15 02:00:24;;;;;;;84.60;41.30;;;;;;;9.88;100.00;102636.72;4797015;29;21620;-72
2021/12/15 02:02:51;;;;;;;75.45;40.90;;;;;;;9.90;100.00;102645.47;4827693;29;20055;-71
2021/12/15 02:05:17;;;;;;;70.22;40.67;;;;;;;9.90;100.00;102645.47;4824062;29;20055;-72
2021/12/15 02:07:44;;;;;;;72.15;40.40;;;;;;;9.87;100.00;102648.50;4816752;29;20113;-72
2021/12/15 02:10:11;;;;;;;77.57;41.47;;;;;;;9.87;100.00;102646.66;4818998;28;20166;-72
2021/12/15 02:12:39;;;;;;;77.07;40.85;;;;;;;9.86;100.00;102639.56;4813757;29;20041;-72
2021/12/15 02:15:30;;;;;;;74.97;42.67;;;;;;;9.91;100.00;102636.41;4835425;29;20058;-72
2021/12/15 02:17:56;;;;;;;75.95;40.65;;;;;;;9.93;100.00;102635.25;4814110;29;20066;-72
2021/12/15 02:20:31;;;;;;;79.82;43.78;;;;;;;9.93;100.00;102639.75;4834037;29;21213;-74
2021/12/15 02:22:57;;;;;;;72.70;40.78;;;;;;;9.93;100.00;102640.63;4800257;29;20475;-72
2021/12/15 02:25:22;;;;;;;74.75;41.10;;;;;;;10.00;100.00;102632.69;4814299;29;20478;-72
2021/12/15 02:27:48;;;;;;;79.50;41.53;;;;;;;9.95;100.00;102630.50;4814659;29;20669;-72
2021/12/15 02:38:37;;;;;;;69.75;39.72;;;;;;;9.97;100.00;102630.38;4831912;28;20066;-73
2021/12/15 02:41:12;;;;;;;67.38;40.97;;;;;;;9.97;100.00;102636.59;4812003;28;20039;-73
2021/12/15 02:43:38;;;;;;;85.72;43.38;;;;;;;9.99;100.00;102631.88;4806410;29;20189;-73
2021/12/15 02:46:05;;;;;;;72.78;40.00;;;;;;;9.98;100.00;102637.44;4799392;29;20055;-73
2021/12/15 02:48:30;;;;;;;83.05;44.08;;;;;;;9.98;100.00;102634.72;4832410;29;21085;-73
2021/12/15 02:50:56;;;;;;;70.55;41.28;;;;;;;9.94;100.00;102633.38;4826519;28;20051;-73
2021/12/15 02:53:22;;;;;;;73.95;43.28;;;;;;;9.91;100.00;102636.41;4836575;29;30635;-73
2021/12/15 02:55:49;;;;;;;73.13;42.95;;;;;;;9.96;100.00;102637.56;4824469;29;20165;-73
2021/12/15 02:58:15;;;;;;;79.85;43.92;;;;;;;9.94;100.00;102630.69;4819747;29;20161;-73
2021/12/15 03:00:58;;;;;;;77.50;44.33;;;;;;;9.90;100.00;102629.31;4833898;28;20035;-73
2021/12/15 03:05:57;;;;;;;92.97;45.58;;;;;;;9.92;100.00;102630.00;4820653;29;20118;-73
2021/12/15 03:08:47;;;;;;;78.35;45.30;;;;;;;10.00;100.00;102635.41;4820497;29;20054;-73
2021/12/15 03:16:36;;;;;;;75.47;42.85;;;;;;;9.90;100.00;102630.19;4828895;29;20155;-73
2021/12/15 03:19:02;;;;;;;81.35;45.90;;;;;;;9.93;100.00;102628.97;4839205;29;20035;-73
2021/12/15 03:21:28;;;;;;;84.63;44.95;;;;;;;9.92;100.00;102621.94;4823642;29;20157;-74
2021/12/15 03:24:00;;;;;;;80.25;45.55;;;;;;;9.93;100.00;102628.97;4807067;29;20745;-74
2021/12/15 03:26:32;;;;;;;88.28;45.78;;;;;;;9.92;100.00;102627.31;4818763;28;20171;-74
2021/12/15 03:35:45;;;;;;;76.32;44.45;;;;;;;9.95;100.00;102632.38;4821321;28;20055;-73
2021/12/15 03:37:23;;;;;;;83.05;44.40;;;;;;;9.94;100.00;102628.84;4825367;28;20170;-73
2021/12/15 03:39:59;;;;;;;81.43;46.25;;;;;;;9.90;100.00;102635.56;4834592;28;20043;-73
2021/12/15 03:42:33;;;;;;;86.05;46.97;;;;;;;9.89;100.00;102633.03;4827663;29;20057;-73
2021/12/15 03:44:59;;;;;;;86.10;47.38;;;;;;;9.95;100.00;102632.38;4837157;29;20102;-73
2021/12/15 03:47:29;;;;;;;82.30;45.40;;;;;;;9.92;100.00;102632.69;4803740;29;20069;-73
2021/12/15 03:49:56;;;;;;;76.57;44.90;;;;;;;9.91;100.00;102625.63;4837042;29;20094;-73
2021/12/15 03:52:22;;;;;;;86.57;45.30;;;;;;;9.90;100.00;102629.31;4814822;28;22693;-73
2021/12/15 03:54:47;;;;;;;80.75;46.17;;;;;;;9.91;100.00;102622.94;4825347;29;20066;-73
2021/12/15 03:57:13;;;;;;;88.55;47.42;;;;;;;9.91;100.00;102628.31;4833914;29;20034;-75
2021/12/15 03:59:42;;;;;;;87.72;46.42;;;;;;;9.93;100.00;102628.97;4820830;29;20047;-75
2021/12/15 04:02:09;;;;;;;87.07;45.67;;;;;;;9.96;100.00;102628.66;4831240;29;20149;-75
2021/12/15 04:04:35;;;;;;;84.35;45.83;;;;;;;9.97;100.00;102630.38;4829483;28;20043;-73
2021/12/15 04:07:00;;;;;;;80.07;46.95;;;;;;;9.93;100.00;102623.59;4820589;28;20127;-73
2021/12/15 04:09:26;;;;;;;86.72;47.42;;;;;;;9.91;100.00;102614.88;4833758;29;20039;-73
2021/12/15 04:11:54;;;;;;;95.40;50.05;;;;;;;9.90;100.00;102623.94;4816365;29;20085;-74
2021/12/15 04:14:22;;;;;;;86.55;47.13;;;;;;;9.93;100.00;102628.97;4828584;29;20055;-74
2021/12/15 04:17:05;;;;;;;83.25;47.17;;;;;;;9.91;100.00;102631.03;4838066;28;20027;-73
2021/12/15 04:19:33;;;;;;;83.43;46.37;;;;;;;9.92;100.00;102630.84;4822573;28;21129;-73
2021/12/15 04:21:59;;;;;;;92.95;46.40;;;;;;;9.95;100.00;102632.38;4835747;29;20310;-72
2021/12/15 04:24:26;;;;;;;88.90;47.80;;;;;;;9.93;100.00;102642.44;4833436;29;20028;-72
2021/12/15 04:26:54;;;;;;;85.05;46.97;;;;;;;9.97;100.00;102646.53;4826912;29;20055;-72
2021/12/15 04:29:20;;;;;;;88.65;46.10;;;;;;;9.90;100.00;102637.38;4818927;29;20138;-72
2021/12/15 04:32:06;;;;;;;91.18;48.00;;;;;;;9.87;100.00;102640.44;4812294;28;20161;-73
2021/12/15 04:34:32;;;;;;;94.47;47.33;;;;;;;9.88;100.00;102631.34;4833497;29;20316;-73
2021/12/15 04:36:58;;;;;;;94.40;47.03;;;;;;;9.88;100.00;102642.09;4834543;29;21508;-73
2021/12/15 04:39:26;;;;;;;95.18;48.33;;;;;;;9.88;100.00;102640.25;4824194;29;20231;-73
2021/12/15 04:41:52;;;;;;;93.25;48.30;;;;;;;9.90;100.00;102640.06;4832470;29;20034;-72
2021/12/15 04:44:21;;;;;;;88.15;47.35;;;;;;;9.87;100.00;102640.44;4828179;29;20130;-73
2021/12/15 04:47:00;;;;;;;94.57;49.22;;;;;;;9.91;100.00;102641.78;4822395;29;20082;-73
2021/12/15 04:49:27;;;;;;;88.70;47.33;;;;;;;9.91;100.00;102639.09;4816078;29;20040;-73
2021/12/15 04:51:53;;;;;;;87.03;48.17;;;;;;;9.89;100.00;102643.78;4819021;29;20066;-73
2021/12/15 04:54:19;;;;;;;88.07;48.15;;;;;;;9.86;100.00;102654.88;4818058;29;20498;-72
2021/12/15 04:56:47;;;;;;;99.57;49.67;;;;;;;9.89;100.00;102662.63;4812967;29;20035;-72
2021/12/15 04:59:13;;;;;;;95.40;48.20;;;;;;;9.86;100.00;102660.25;4826125;29;21379;-73
2021/12/15 05:01:38;;;;;;;91.72;47.72;;;;;;;9.85;100.00;102653.19;4814741;29;20031;-73
2021/12/15 05:04:04;;;;;;;93.60;46.78;;;;;;;9.88;100.00;102664.47;4827902;28;20065;-73
2021/12/15 05:06:30;;;;;;;99.72;47.40;;;;;;;9.88;100.00;102658.25;4824367;29;20077;-73
2021/12/15 05:08:56;;;;;;;89.43;45.97;;;;;;;9.87;100.00;102651.19;4815613;28;23730;-73
2021/12/15 05:11:21;;;;;;;88.43;46.03;;;;;;;9.84;100.00;102652.38;4818146;29;20070;-73
2021/12/15 05:13:47;;;;;;;92.75;48.33;;;;;;;9.85;100.00;102653.19;4830084;29;20044;-73
2021/12/15 05:16:12;;;;;;;93.57;47.65;;;;;;;9.85;100.00;102658.59;4809135;29;20034;-73
2021/12/15 05:18:38;;;;;;;98.22;48.95;;;;;;;9.82;100.00;102658.91;4823278;29;20170;-73
2021/12/15 05:21:06;;;;;;;87.63;45.85;;;;;;;9.86;100.00;102666.47;4817900;29;21209;-73
2021/12/15 05:23:32;;;;;;;95.03;47.88;;;;;;;9.90;100.00;102669.69;4820024;28;20057;-73
2021/12/15 05:25:59;;;;;;;89.85;46.90;;;;;;;9.89;100.00;102670.72;4834666;29;21096;-72
2021/12/15 05:28:26;;;;;;;101.53;48.13;;;;;;;9.88;100.00;102669.03;4799351;29;20043;-72
2021/12/15 05:30:52;;;;;;;96.47;47.63;;;;;;;9.86;100.00;102676.41;4817444;28;20052;-72
2021/12/15 05:33:17;;;;;;;100.18;49.10;;;;;;;9.82;100.00;102664.28;4817803;29;20994;-72
2021/12/15 05:35:43;;;;;;;81.75;45.53;;;;;;;9.80;100.00;102662.63;4831732;28;20051;-72
2021/12/15 05:38:09;;;;;;;98.95;48.75;;;;;;;9.85;100.00;102672.03;4825159;28;21253;-71
2021/12/15 05:40:35;;;;;;;104.50;48.80;;;;;;;9.85;100.00;102664.81;4812545;29;20434;-72
2021/12/15 05:43:01;;;;;;;83.53;46.58;;;;;;;9.88;100.00;102672.56;4819839;29;20051;-71
2021/12/15 05:45:29;;;;;;;92.88;46.20;;;;;;;9.83;100.00;102677.59;4833446;28;20993;-72
2021/12/15 05:47:57;;;;;;;92.38;45.55;;;;;;;9.80;100.00;102665.31;4832533;29;20047;-73
2021/12/15 05:50:25;;;;;;;87.40;45.47;;;;;;;9.83;100.00;102672.22;4801033;28;20051;-72
2021/12/15 05:52:50;;;;;;;92.90;49.17;;;;;;;9.83;100.00;102674.03;4812200;29;20031;-72
2021/12/15 05:55:18;;;;;;;89.78;47.38;;;;;;;9.84;100.00;102673.06;4777645;28;20050;-72
2021/12/15 05:57:43;;;;;;;93.70;46.80;;;;;;;9.82;100.00;102675.91;4802368;29;20059;-72
2021/12/15 06:00:13;;;;;;;85.85;45.17;;;;;;;9.86;100.00;102665.66;4813401;29;20117;-72
2021/12/15 06:02:39;;;;;;;82.05;46.85;;;;;;;9.86;100.00;102676.41;4821316;28;20051;-72
2021/12/15 06:05:05;;;;;;;80.15;43.72;;;;;;;9.78;100.00;102670.00;4824369;28;20031;-73
2021/12/15 06:07:31;;;;;;;86.55;46.88;;;;;;;9.81;100.00;102674.22;4834074;28;20035;-73
2021/12/15 06:09:56;;;;;;;93.18;45.83;;;;;;;9.85;100.00;102674.72;4816041;29;20060;-73
2021/12/15 06:12:22;;;;;;;87.13;48.08;;;;;;;9.83;100.00;102669.53;4812569;29;20032;-73
2021/12/15 06:14:48;;;;;;;88.63;46.85;;;;;;;9.82;100.00;102678.59;4825573;28;20099;-73
2021/12/15 06:17:13;;;;;;;89.28;44.75;;;;;;;9.83;100.00;102671.34;4804386;29;20082;-73
2021/12/15 06:19:39;;;;;;;83.55;46.25;;;;;;;9.84;100.00;102679.28;4816650;29;20343;-73
2021/12/15 06:22:06;;;;;;;90.15;47.30;;;;;;;9.87;100.00;102680.81;4817573;28;20055;-72
2021/12/15 06:24:32;;;;;;;88.32;46.80;;;;;;;9.86;100.00;102679.94;4801661;29;20126;-72
2021/12/15 06:27:05;;;;;;;89.15;47.13;;;;;;;9.89;100.00;102687.69;4818659;29;20085;-71
2021/12/15 06:29:31;;;;;;;;;;;;;;;9.86;100.00;102677.25;4828002;29;20164;-73
2021/12/15 06:31:57;;;;;;;96.60;47.03;;;;;;;9.87;100.00;102683.50;4840732;29;20001;-73
2021/12/15 06:34:22;;;;;;;84.88;44.88;;;;;;;9.89;100.00;102686.84;4815909;29;20058;-75
2021/12/15 06:36:48;;;;;;;79.22;44.97;;;;;;;9.92;100.00;102686.53;4810809;29;20185;-74
2021/12/15 06:39:14;;;;;;;87.95;47.03;;;;;;;9.96;100.00;102682.50;4820224;29;23968;-74
2021/12/15 06:41:40;;;;;;;84.30;46.15;;;;;;;9.93;100.00;102682.81;4789510;29;20060;-75
2021/12/15 06:44:05;;;;;;;89.00;43.63;;;;;;;9.95;100.00;102691.59;4836920;29;20062;-74
2021/12/15 06:59:48;;;;;;;83.97;46.75;;;;;;;9.86;100.00;102722.16;4840163;28;20058;-75
2021/12/15 07:02:14;;;;;;;88.47;48.47;;;;;;;9.87;100.00;102721.19;4828320;29;20058;-74
2021/12/15 07:04:39;;;;;;;85.20;47.10;;;;;;;9.80;100.00;102711.06;4837497;28;20077;-74
2021/12/15 07:07:05;;;;;;;90.03;47.95;;;;;;;9.84;100.00;102725.03;4806843;29;20341;-75
2021/12/15 07:09:33;;;;;;;83.85;47.17;;;;;;;9.84;100.00;102724.19;4818748;29;20039;-74
2021/12/15 07:11:58;;;;;;;91.78;47.40;;;;;;;9.86;100.00;102730.25;4816851;29;20118;-75
2021/12/15 07:14:24;;;;;;;85.95;47.40;;;;;;;9.89;100.00;102721.84;4824387;29;20046;-74
2021/12/15 07:16:52;;;;;;;94.80;49.05;;;;;;;9.84;100.00;102725.03;4819012;29;21133;-72
2021/12/15 07:19:32;;;;;;;85.97;45.95;;;;;;;9.87;100.00;102734.66;4830047;28;20462;-74
2021/12/15 07:22:16;;;;;;;83.97;45.97;;;;;;;9.85;100.00;102724.03;4826606;29;20081;-73
2021/12/15 07:24:42;;;;;;;84.47;46.00;;;;;;;9.78;100.00;102723.81;4817655;29;20037;-73
2021/12/15 07:27:07;;;;;;;78.57;44.67;;;;;;;9.83;100.00;102730.56;4821818;28;22029;-73
2021/12/15 07:29:34;;;;;;;89.68;47.35;;;;;;;9.83;100.00;102725.19;4833675;29;20034;-72
2021/12/15 07:32:00;;;;;;;78.20;43.53;;;;;;;9.84;100.00;102732.28;4809774;29;20031;-73
2021/12/15 07:34:25;;;;;;;80.18;46.22;;;;;;;9.89;100.00;102729.94;4790897;29;20185;-74
2021/12/15 07:36:51;;;;;;;86.55;46.15;;;;;;;9.89;100.00;102729.94;4813843;29;20039;-74
2021/12/15 07:39:16;;;;;;;81.90;44.50;;;;;;;9.86;100.00;102736.47;4821493;28;20181;-74
2021/12/15 07:41:51;;;;;;;79.57;43.90;;;;;;;9.86;100.00;102733.78;4836785;29;20031;-73
2021/12/15 07:44:18;;;;;;;80.47;41.78;;;;;;;9.88;100.00;102739.00;4837016;29;20043;-73
2021/12/15 07:46:45;;;;;;;72.53;42.45;;;;;;;9.85;100.00;102726.72;4822652;29;20060;-73
2021/12/15 07:49:12;;;;;;;71.75;41.28;;;;;;;9.86;100.00;102738.31;4817914;29;20047;-73
2021/12/15 07:51:39;;;;;;;73.35;41.63;;;;;;;9.88;100.00;102730.94;4811266;28;20051;-74
2021/12/15 07:54:04;;;;;;;75.10;41.40;;;;;;;9.93;100.00;102733.97;4804073;29;20174;-75
2021/12/15 07:56:29;;;;;;;76.35;40.50;;;;;;;9.94;100.00;102733.00;4833255;29;23893;-76
2021/12/15 07:58:55;;;;;;;72.45;39.95;;;;;;;9.91;100.00;102738.69;4820510;29;20062;-76
2021/12/15 08:01:22;;;;;;;66.90;40.28;;;;;;;9.96;100.00;102737.19;4833013;28;20125;-76
2021/12/15 08:03:51;;;;;;;75.57;41.53;;;;;;;9.92;100.00;102741.22;4817955;29;20043;-76
2021/12/15 08:06:18;;;;;;;77.35;40.28;;;;;;;9.95;100.00;102734.66;4769508;29;20581;-76
2021/12/15 08:08:44;;;;;;;72.55;40.63;;;;;;;9.94;100.00;102741.91;4812308;29;23036;-76
2021/12/15 08:11:09;;;;;;;72.32;39.17;;;;;;;9.98;100.00;102742.44;4805982;29;20070;-75
2021/12/15 08:13:36;;;;;;;65.68;37.80;;;;;;;9.99;100.00;102741.41;4818950;29;20089;-75
2021/12/15 08:16:02;;;;;;;64.07;37.25;;;;;;;10.00;100.00;102743.97;4813567;29;20035;-74
2021/12/15 08:18:30;;;;;;;63.47;35.13;;;;;;;10.03;100.00;102749.00;4785941;28;22703;-74
2021/12/15 08:20:57;;;;;;;62.72;36.38;;;;;;;10.04;100.00;102749.84;4834814;29;20721;-74
2021/12/15 08:23:23;;;;;;;52.67;32.63;;;;;;;10.11;100.00;102756.28;4832564;29;20031;-73
2021/12/15 08:25:49;;;;;;;57.65;33.42;;;;;;;10.12;100.00;102752.56;4803953;29;20599;-74
2021/12/15 08:28:14;;;;;;;55.58;32.72;;;;;;;10.13;100.00;102748.84;4821926;29;20110;-72
2021/12/15 08:30:42;;;;;;;52.65;30.23;;;;;;;10.11;100.00;102752.72;4817684;28;20039;-73
2021/12/15 08:33:12;;;;;;;51.67;29.17;;;;;;;10.16;100.00;102759.31;4826907;29;20138;-73
2021/12/15 08:35:45;;;;;;;54.65;29.27;;;;;;;10.15;100.00;102754.94;4819439;29;20094;-73
2021/12/15 08:38:12;;;;;;;49.15;28.45;;;;;;;10.20;100.00;102762.53;4821072;28;20047;-73
2021/12/15 08:40:38;;;;;;;42.60;26.67;;;;;;;10.21;100.00;102761.50;4818774;28;21369;-74
2021/12/15 08:43:06;;;;;;;53.53;27.25;;;;;;;10.19;100.00;102759.00;4813156;29;20047;-74
2021/12/15 08:45:32;;;;;;;51.83;28.13;;;;;;;10.19;100.00;102764.38;4824676;29;20047;-74
2021/12/15 08:47:58;;;;;;;49.13;26.33;;;;;;;10.21;100.00;102767.75;4835924;29;20042;-73
2021/12/15 08:50:29;;;;;;;46.85;25.63;;;;;;;10.22;100.00;102764.06;4818964;28;20051;-74
2021/12/15 08:52:55;;;;;;;47.00;25.55;;;;;;;10.25;100.00;102763.75;4818368;29;20626;-73
2021/12/15 08:55:20;;;;;;;53.08;28.25;;;;;;;10.26;100.00;102764.59;4833311;29;20114;-73
2021/12/15 08:57:49;;;;;;;45.20;25.35;;;;;;;10.29;100.00;102774.22;4801056;29;20055;-73
2021/12/15 09:00:17;;;;;;;47.42;27.10;;;;;;;10.31;100.00;102772.19;4834716;29;20130;-73
2021/12/15 09:02:43;;;;;;;47.88;25.38;;;;;;;10.31;100.00;102777.56;4809505;29;20078;-74
2021/12/15 09:05:09;;;;;;;57.20;26.65;;;;;;;10.36;100.00;102775.25;4804336;29;20193;-73
2021/12/15 09:07:34;;;;;;;45.05;25.13;;;;;;;10.34;100.00;102772.69;4812980;29;20043;-74
2021/12/15 09:10:00;;;;;;;43.17;24.67;;;;;;;10.37;100.00;102771.53;4817445;29;20047;-74
2021/12/15 09:12:25;;;;;;;45.53;25.90;;;;;;;10.42;100.00;102786.19;4828177;29;20054;-73
2021/12/15 09:14:51;;;;;;;45.30;24.30;;;;;;;10.41;100.00;102789.88;4815662;29;20036;-74
2021/12/15 09:17:17;;;;;;;45.90;24.38;;;;;;;10.45;100.00;102787.72;4784639;29;20059;-74
2021/12/15 09:19:42;;;;;;;39.92;23.70;;;;;;;10.45;100.00;102787.72;4814479;29;20184;-73
2021/12/15 09:22:10;;;;;;;40.97;22.88;;;;;;;10.54;100.00;102786.72;4790911;29;20095;-73
2021/12/15 09:24:36;;;;;;;39.10;23.52;;;;;;;10.63;100.00;102788.41;4802003;29;20058;-74
2021/12/15 09:27:01;;;;;;;46.00;23.42;;;;;;;10.64;100.00;102792.81;4832158;28;20044;-73
2021/12/15 09:29:27;;;;;;;37.60;21.63;;;;;;;10.61;100.00;102801.22;4818695;28;20051;-73
2021/12/15 09:31:53;;;;;;;41.50;20.77;;;;;;;10.70;100.00;102794.00;4831672;29;21069;-73
2021/12/15 09:34:19;;;;;;;42.90;21.60;;;;;;;10.70;100.00;102784.03;4810988;29;20043;-72
2021/12/15 09:36:47;;;;;;;34.63;21.27;;;;;;;10.70;100.00;102792.13;4815460;29;20110;-73
2021/12/15 09:39:15;;;;;;;39.03;21.35;;;;;;;10.77;100.00;102804.94;4830255;28;20027;-72
2021/12/15 09:41:41;;;;;;;38.00;20.63;;;;;;;10.78;100.00;102801.28;4824268;28;20091;-72
2021/12/15 09:44:10;;;;;;;39.08;20.73;;;;;;;10.77;100.00;102795.00;4802499;29;20210;-73
2021/12/15 09:47:37;;;;;;;40.03;21.00;;;;;;;10.71;100.00;102791.13;4807949;29;22588;-73
2021/12/15 10:03:30;;;;;;;29.35;16.73;;;;;;;12.19;100.00;102799.91;4807797;29;20051;-73
2021/12/15 10:20:00;;;;;;;33.30;17.52;;;;;;;11.55;100.00;102810.69;4807808;28;20058;-73
2021/12/15 10:25:15;;;;;;;32.25;17.20;;;;;;;11.44;100.00;102824.53;4813997;29;20188;-74
2021/12/15 10:27:42;;;;;;;30.77;17.83;;;;;;;11.21;100.00;102822.53;4800559;29;23079;-73
2021/12/15 10:30:39;;;;;;;29.55;18.27;;;;;;;11.17;100.00;102812.25;4809750;29;20042;-72
2021/12/15 10:33:24;;;;;;;29.75;18.38;;;;;;;11.20;100.00;102815.44;4807686;29;20165;-73
2021/12/15 10:35:53;;;;;;;29.02;18.58;;;;;;;11.16;100.00;102805.13;4805953;29;20181;-75
2021/12/15 10:38:43;;;;;;;28.95;17.65;;;;;;;11.09;100.00;102809.53;4815139;29;21119;-72
2021/12/15 10:41:39;;;;;;;31.27;17.42;;;;;;;10.98;100.00;102813.41;4801581;29;20095;-73
2021/12/15 10:44:14;;;;;;;28.20;16.75;;;;;;;10.84;100.00;102808.66;4831970;29;20051;-73
2021/12/15 10:46:57;;;;;;;30.73;17.40;;;;;;;10.94;100.00;102815.59;4839430;28;20055;-74
2021/12/15 10:49:29;;;;;;;33.65;16.90;;;;;;;10.91;100.00;102805.13;4840324;28;20053;-73
2021/12/15 10:52:05;;;;;;;29.10;17.02;;;;;;;10.95;100.00;102811.03;4832147;29;20035;-73
2021/12/15 10:54:30;;;;;;;31.38;16.23;;;;;;;11.02;100.00;102804.00;4848534;29;20058;-74
2021/12/15 10:57:08;;;;;;;33.97;16.67;;;;;;;10.92;100.00;102798.75;4845503;29;20035;-72
2021/12/15 10:59:45;;;;;;;31.77;17.00;;;;;;;10.94;100.00;102802.09;4818304;29;20098;-74
2021/12/15 11:02:21;;;;;;;27.65;16.35;;;;;;;10.88;100.00;102808.19;4832883;28;20058;-73
2021/12/15 11:04:55;;;;;;;29.52;16.33;;;;;;;10.91;100.00;102809.69;4817145;29;20031;-73
2021/12/15 11:07:31;;;;;;;29.48;15.98;;;;;;;10.94;100.00;102806.66;4818311;29;20047;-72
2021/12/15 11:09:59;;;;;;;33.38;16.13;;;;;;;10.93;100.00;102810.38;4816152;29;20828;-72
2021/12/15 11:12:35;;;;;;;29.15;16.05;;;;;;;11.00;100.00;102816.78;4830116;28;20043;-74
2021/12/15 11:15:06;;;;;;;30.20;15.43;;;;;;;11.00;100.00;102806.00;4814422;29;20039;-71
2021/12/15 11:17:35;;;;;;;26.92;14.25;;;;;;;10.95;100.00;102803.81;4832936;29;20121;-73
2021/12/15 11:20:03;;;;;;;32.63;16.35;;;;;;;11.02;100.00;102808.50;4800769;29;21767;-71
2021/12/15 11:22:44;;;;;;;30.25;15.25;;;;;;;11.05;100.00;102797.38;4831822;29;22890;-75
2021/12/15 11:25:27;;;;;;;28.40;14.15;;;;;;;11.13;100.00;102806.34;4827212;28;20051;-74
2021/12/15 11:27:58;;;;;;;24.05;13.73;;;;;;;11.15;100.00;102808.84;4823955;28;22789;-73
2021/12/15 11:30:50;;;;;;;27.42;14.70;;;;;;;11.15;100.00;102811.56;4799462;29;20200;-73
2021/12/15 11:33:16;;;;;;;29.02;13.98;;;;;;;11.13;100.00;102789.31;4787587;29;20059;-73
2021/12/15 11:36:08;;;;;;;23.27;13.05;;;;;;;11.10;100.00;102785.09;4810758;29;20035;-71
2021/12/15 11:38:36;;;;;;;21.90;12.93;;;;;;;11.19;100.00;102800.25;4808538;29;20056;-74
2021/12/15 11:41:22;;;;;;;22.60;12.13;;;;;;;11.20;100.00;102801.13;4830476;29;20040;-74
2021/12/15 11:43:54;;;;;;;24.63;12.45;;;;;;;11.25;100.00;102804.13;4829518;28;24007;-74
2021/12/15 11:46:21;;;;;;;25.77;11.30;;;;;;;11.25;100.00;102795.22;4815833;29;20763;-75
2021/12/15 11:48:53;;;;;;;19.15;10.70;;;;;;;11.19;100.00;102794.84;4830926;29;20325;-74
2021/12/15 11:51:43;;;;;;;26.60;12.18;;;;;;;11.22;100.00;102799.91;4827764;28;20055;-74
2021/12/15 11:54:27;;;;;;;20.52;10.85;;;;;;;11.26;100.00;102784.22;4814130;29;20154;-74
2021/12/15 11:57:05;;;;;;;18.20;10.85;;;;;;;11.42;100.00;102797.72;4809484;28;20041;-73
2021/12/15 11:59:42;;;;;;;21.05;11.30;;;;;;;11.51;100.00;102792.28;4809697;29;20055;-73
2021/12/15 12:02:29;;;;;;;18.85;10.35;;;;;;;11.56;100.00;102790.78;4838674;29;20154;-74
2021/12/15 12:04:58;;;;;;;19.90;10.10;;;;;;;11.57;100.00;102791.63;4818747;29;20051;-74
2021/12/15 12:07:44;;;;;;;17.17;9.20;;;;;;;11.35;100.00;102794.00;4812287;29;20039;-74
2021/12/15 12:10:20;;;;;;;19.45;9.07;;;;;;;11.31;100.00;102791.84;4821174;28;20035;-72
2021/12/15 12:12:53;;;;;;;16.42;8.75;;;;;;;11.39;100.00;102791.81;4818826;28;20055;-73
2021/12/15 12:15:21;;;;;;;14.98;8.45;;;;;;;11.42;100.00;102799.56;4792960;29;20027;-73
2021/12/15 12:17:49;;;;;;;16.90;8.68;;;;;;;11.39;100.00;102800.75;4809959;28;20063;-73
2021/12/15 12:20:16;;;;;;;14.55;7.70;;;;;;;11.35;100.00;102801.28;4827625;29;21290;-73
2021/12/15 12:22:45;;;;;;;17.88;8.27;;;;;;;11.34;100.00;102796.91;4809229;29;20038;-73
2021/12/15 12:25:15;;;;;;;18.42;7.88;;;;;;;11.31;100.00;102798.06;4818093;29;20051;-71
2021/12/15 12:27:42;;;;;;;18.25;8.18;;;;;;;11.19;100.00;102794.84;4831730;28;20058;-72
2021/12/15 12:30:12;;;;;;;17.33;8.70;;;;;;;11.22;100.00;102802.63;4811336;29;20047;-70
2021/12/15 12:32:39;;;;;;;25.90;11.90;;;;;;;11.12;100.00;102804.63;4822738;29;20047;-71